Terminal Aerodrome Forecast
Issued by NWS Northern Indiana

Home | Current Version | Previous Version | Text Only | Print | Product List | Glossary On
Versions: 1 2 3 4 5 6 7 8 9 10 11 12 13 14 15 16
000
FTUS43 KIWX 270520
TAFFWA
TAF
KFWA 270520Z 2706/2806 10004KT P6SM FEW035 BKN150
     FM271800 14007KT P6SM VCTS SCT060CB BKN120
     FM280000 14004KT P6SM BKN100=

USA.gov is the U.S. government's official web portal to all federal, state and local government web resources and services.